Time;durP1;ratioP1;P1;durP2;ratioP2;P2;SDS_P1;SDS_P2;PMS_P1;PMS_P2;Temp;Humidity;BMP_temperature;BMP_pressure;BME280_temperature;BME280_humidity;BME280_pressure;Samples;Min_cycle;Max_cycle;Signal;HPM_P1;HPM_P2
2022/05/24 00:08:04;;;;;;;5.80;5.10;;;;;;;9.39;64.02;98852.65;446099;1271;142907;-53
2022/05/24 00:18:12;;;;;;;7.80;7.10;;;;;;;9.27;64.85;98844.11;443582;1273;142079;-53
2022/05/24 00:28:20;;;;;;;7.50;5.40;;;;;;;9.18;65.03;98846.77;446997;1272;143779;-54
2022/05/24 00:38:29;;;;;;;8.80;5.90;;;;;;;8.98;65.43;98852.23;443687;1272;141391;-51
2022/05/24 00:48:38;;;;;;;5.60;4.90;;;;;;;8.84;66.16;98851.05;446956;1272;142445;-55
2022/05/24 00:58:49;;;;;;;5.80;5.20;;;;;;;8.74;66.38;98842.84;446179;1270;142121;-53
2022/05/24 01:08:59;;;;;;;6.40;5.80;;;;;;;8.65;67.05;98836.80;446848;1273;141424;-52
2022/05/24 01:19:10;;;;;;;7.80;5.70;;;;;;;8.57;67.48;98830.20;442045;1271;141880;-49
2022/05/24 01:29:17;;;;;;;9.60;7.00;;;;;;;8.50;67.57;98814.09;443784;1272;142769;-49
2022/05/24 01:39:23;;;;;;;9.10;6.10;;;;;;;8.45;68.23;98804.28;430110;1273;197828;-48
2022/05/24 01:49:33;;;;;;;7.00;6.30;;;;;;;8.42;68.40;98793.48;435454;1273;142772;-53
2022/05/24 01:59:41;;;;;;;6.80;5.70;;;;;;;8.39;68.86;98783.26;430053;1272;141809;-48
2022/05/24 02:09:49;;;;;;;5.90;5.30;;;;;;;8.32;68.90;98776.86;435358;1273;141647;-50
2022/05/24 02:19:57;;;;;;;6.30;5.70;;;;;;;8.30;69.49;98763.23;434623;1272;142715;-54
2022/05/24 02:30:02;;;;;;;;;;;;;;;8.33;69.72;98749.98;447145;1272;142209;-53
2022/05/24 02:50:32;;;;;;;7.30;5.70;;;;;;;8.50;69.74;98728.08;446376;1271;143920;-55
2022/05/24 03:00:38;;;;;;;10.20;5.90;;;;;;;8.70;69.88;98718.52;446760;1271;142700;-53
2022/05/24 03:10:44;;;;;;;7.00;5.60;;;;;;;9.61;69.51;98721.58;432478;1273;551713;-52
2022/05/24 03:20:50;;;;;;;6.90;6.10;;;;;;;11.37;66.72;98721.85;440223;1273;142588;-53
2022/05/24 03:30:56;;;;;;;5.30;4.80;;;;;;;10.90;65.58;98724.20;429986;1273;141559;-52
2022/05/24 03:41:03;;;;;;;6.60;5.30;;;;;;;10.58;65.98;98728.02;445104;1273;141668;-54
2022/05/24 03:51:09;;;;;;;5.20;4.70;;;;;;;10.74;66.02;98725.21;438604;1273;146767;-52
2022/05/24 04:01:15;;;;;;;5.20;4.40;;;;;;;11.43;65.17;98723.62;445478;1272;142772;-54
2022/05/24 04:11:21;;;;;;;6.30;4.70;;;;;;;14.44;63.06;98730.48;429335;1273;141768;-50
2022/05/24 04:21:27;;;;;;;5.90;4.50;;;;;;;18.06;54.58;98729.94;429333;1273;143054;-52
2022/05/24 04:31:33;;;;;;;6.00;4.30;;;;;;;15.91;54.42;98729.47;429742;1273;141309;-52
2022/05/24 04:52:03;;;;;;;3.60;3.20;;;;;;;21.22;48.46;98718.73;433690;1273;141277;-54
2022/05/24 05:02:09;;;;;;;3.10;2.80;;;;;;;24.04;42.54;98721.07;430732;1273;140785;-56
2022/05/24 05:12:16;;;;;;;3.30;3.00;;;;;;;22.06;40.87;98718.27;438693;1273;142294;-54
2022/05/24 05:22:21;;;;;;;4.50;2.80;;;;;;;20.95;42.55;98705.92;445931;1272;142303;-55
2022/05/24 05:32:30;;;;;;;2.90;2.60;;;;;;;25.54;38.25;98700.88;430024;1273;141024;-55
2022/05/24 05:42:37;;;;;;;2.60;2.40;;;;;;;24.40;36.11;98701.15;446815;1273;141307;-56
2022/05/24 05:52:43;;;;;;;3.80;2.40;;;;;;;22.21;37.87;98714.20;446428;1272;142197;-56
2022/05/24 06:02:49;;;;;;;3.80;2.50;;;;;;;21.92;37.93;98720.37;447178;1272;141106;-56
2022/05/24 06:12:56;;;;;;;2.60;2.30;;;;;;;20.53;39.24;98710.13;447040;1272;141386;-54
2022/05/24 06:23:02;;;;;;;2.80;2.60;;;;;;;18.25;41.94;98714.16;431935;1273;143680;-51
2022/05/24 06:33:08;;;;;;;3.50;2.90;;;;;;;17.19;44.38;98715.58;429906;1274;141632;-53
2022/05/24 06:43:21;;;;;;;2.80;2.40;;;;;;;16.59;45.86;98708.34;440152;1273;141477;-55
2022/05/24 06:53:27;;;;;;;3.90;2.30;;;;;;;16.39;46.98;98696.08;444669;1272;145025;-54
2022/05/24 07:03:33;;;;;;;2.40;2.20;;;;;;;16.89;47.17;98689.36;444219;1272;142098;-52
2022/05/24 07:13:40;;;;;;;2.90;1.80;;;;;;;17.94;46.30;98692.36;429598;1273;142397;-56
2022/05/24 07:23:46;;;;;;;3.10;1.60;;;;;;;18.88;44.26;98697.73;447150;1272;143368;-56
2022/05/24 07:33:51;;;;;;;4.30;2.30;;;;;;;18.70;43.89;98692.92;431588;1273;141307;-49
2022/05/24 07:54:21;;;;;;;3.20;1.70;;;;;;;18.23;43.98;98699.96;438261;1273;142016;-52
2022/05/24 08:04:26;;;;;;;3.10;2.00;;;;;;;17.75;44.34;98703.45;438032;1273;142847;-54
2022/05/24 08:21:39;;;;;;;1.40;1.30;;;;;;;18.25;44.82;98700.26;428191;1310;603126;-55
2022/05/24 08:31:42;;;;;;;1.90;1.60;;;;;;;19.45;43.44;98705.11;432697;1280;189562;-56
2022/05/24 08:41:57;;;;;;;2.80;1.90;;;;;;;19.39;42.60;98704.15;444565;1280;140253;-57
2022/05/24 08:52:04;;;;;;;2.00;1.50;;;;;;;19.39;43.15;98699.49;440909;1281;142149;-57
2022/05/24 09:02:07;;;;;;;4.30;1.70;;;;;;;19.75;42.36;98701.62;429923;1279;141751;-57
2022/05/24 09:12:23;;;;;;;2.00;1.80;;;;;;;19.52;42.44;98699.92;429548;1279;141855;-58
2022/05/24 09:22:32;;;;;;;1.40;1.30;;;;;;;19.24;42.75;98699.84;430351;1280;139687;-57
2022/05/24 09:32:40;;;;;;;2.20;2.00;;;;;;;19.61;42.83;98700.44;430923;1273;140957;-56
2022/05/24 09:42:43;;;;;;;2.60;2.10;;;;;;;19.53;42.67;98707.06;432237;1272;141027;-58
2022/05/24 09:53:08;;;;;;;1.80;1.70;;;;;;;19.07;43.29;98699.38;431078;1273;140808;-55
2022/05/24 10:03:11;;;;;;;3.60;2.10;;;;;;;18.21;46.40;98710.91;430315;1272;143399;-53
2022/05/24 10:13:24;;;;;;;7.00;3.80;;;;;;;17.97;48.46;98716.66;434266;1273;140715;-56
2022/05/24 10:23:41;;;;;;;1.90;1.70;;;;;;;17.97;48.75;98712.41;429940;1273;140387;-53
2022/05/24 10:44:20;;;;;;;3.10;2.10;;;;;;;19.29;48.01;98719.71;431621;1273;140961;-53
2022/05/24 10:54:36;;;;;;;2.40;2.20;;;;;;;19.93;46.85;98719.79;430366;1273;139846;-54
2022/05/24 11:04:45;;;;;;;1.80;1.60;;;;;;;20.19;46.23;98708.14;431497;1273;146174;-57
2022/05/24 11:14:53;;;;;;;4.50;2.00;;;;;;;20.13;46.26;98713.21;432068;1273;141473;-56
2022/05/24 11:25:04;;;;;;;2.10;2.00;;;;;;;19.64;46.84;98713.64;430747;1273;140729;-55
2022/05/24 11:35:11;;;;;;;3.50;2.40;;;;;;;18.93;47.94;98713.77;430468;1273;143982;-55
2022/05/24 11:45:53;;;;;;;6.70;3.00;;;;;;;18.74;48.80;98706.02;429959;1273;144124;-55
2022/05/24 11:56:24;;;;;;;2.70;2.50;;;;;;;18.68;49.34;98711.07;429854;1273;140758;-58
2022/05/24 12:17:14;;;;;;;3.30;2.80;;;;;;;19.49;49.21;98698.80;429630;1273;140311;-56
2022/05/24 12:27:54;;;;;;;3.10;2.80;;;;;;;19.58;49.24;98698.13;430094;1273;140814;-57
2022/05/24 12:37:58;;;;;;;3.10;2.60;;;;;;;19.74;49.28;98692.58;429965;1273;144279;-56
2022/05/24 12:48:01;;;;;;;4.80;3.40;;;;;;;19.93;48.92;98693.75;432588;1273;140498;-57
2022/05/24 12:58:04;;;;;;;3.50;3.10;;;;;;;19.65;48.79;98701.70;429514;1273;142040;-57
2022/05/24 13:08:08;;;;;;;6.20;3.20;;;;;;;19.12;49.01;98696.58;431727;1272;141563;-52
2022/05/24 13:18:22;;;;;;;2.70;2.50;;;;;;;18.93;49.43;98697.70;430328;1273;140734;-54
2022/05/24 13:28:40;;;;;;;5.40;2.60;;;;;;;19.04;49.71;98683.86;432981;1273;140678;-50
2022/05/24 13:38:45;;;;;;;3.20;2.90;;;;;;;19.67;49.51;98685.04;434871;1272;141692;-55
2022/05/24 13:48:55;;;;;;;3.40;3.10;;;;;;;20.15;49.09;98688.35;447091;1272;141121;-53
2022/05/24 13:59:07;;;;;;;3.90;2.80;;;;;;;20.52;48.72;98680.86;441415;1272;141364;-56
2022/05/24 14:09:12;;;;;;;4.30;3.00;;;;;;;20.42;48.61;98690.95;442616;1272;140539;-55
2022/05/24 14:19:15;;;;;;;5.00;2.80;;;;;;;19.83;49.04;98697.39;437516;1272;141451;-52
2022/05/24 14:29:18;;;;;;;3.70;3.30;;;;;;;19.30;49.90;98702.20;436009;1273;141425;-48
2022/05/24 14:39:22;;;;;;;4.30;3.80;;;;;;;18.89;50.86;98704.88;431406;1270;141496;-53
2022/05/24 14:49:26;;;;;;;3.40;3.10;;;;;;;18.57;52.07;98712.89;434236;1270;140270;-57
2022/05/24 14:59:29;;;;;;;4.50;3.60;;;;;;;18.44;52.79;98720.92;431695;1271;141928;-57
2022/05/24 15:19:54;;;;;;;4.20;3.80;;;;;;;18.51;53.37;98705.13;431392;1270;141355;-56
2022/05/24 15:29:57;;;;;;;5.60;3.80;;;;;;;18.51;53.81;98703.27;432271;1270;141367;-54
2022/05/24 15:40:00;;;;;;;3.80;3.50;;;;;;;18.48;54.33;98702.69;430528;1270;147985;-57
2022/05/24 15:50:05;;;;;;;3.90;3.60;;;;;;;18.61;54.32;98711.64;434939;1271;140605;-58
2022/05/24 16:00:12;;;;;;;4.20;3.60;;;;;;;18.69;54.75;98715.95;436912;1270;141157;-58
2022/05/24 16:10:22;;;;;;;5.40;4.00;;;;;;;18.64;54.88;98714.92;443053;1270;140952;-59
2022/05/24 16:20:25;;;;;;;4.80;3.80;;;;;;;18.59;55.07;98715.44;432825;1270;141768;-58
2022/05/24 16:30:28;;;;;;;5.40;3.60;;;;;;;18.68;55.51;98714.95;432705;1271;141212;-60
2022/05/24 16:40:32;;;;;;;3.70;3.30;;;;;;;18.66;55.79;98719.80;433070;1270;140247;-59
2022/05/24 16:50:35;;;;;;;3.80;3.40;;;;;;;18.38;56.25;98729.79;434304;1271;140315;-58
2022/05/24 17:00:39;;;;;;;5.40;4.20;;;;;;;18.02;57.01;98737.91;436560;1270;145968;-57
2022/05/24 17:10:46;;;;;;;3.90;3.10;;;;;;;17.76;57.58;98738.23;437181;1270;141084;-56
2022/05/24 17:20:49;;;;;;;4.20;3.30;;;;;;;17.58;58.05;98746.48;438290;1270;196636;-58
2022/05/24 17:30:53;;;;;;;4.70;4.20;;;;;;;17.43;58.34;98746.86;437765;1270;142001;-57
2022/05/24 17:41:00;;;;;;;8.20;4.70;;;;;;;17.29;58.84;98749.43;436663;1270;141618;-59
2022/05/24 17:51:03;;;;;;;6.30;4.30;;;;;;;17.13;59.19;98757.75;436867;1270;146539;-55
2022/05/24 18:01:09;;;;;;;6.00;4.80;;;;;;;16.99;59.58;98766.44;440100;1271;143059;-56
2022/05/24 18:11:13;;;;;;;5.90;3.90;;;;;;;16.88;60.01;98777.84;430605;1270;142015;-58
2022/05/24 18:21:19;;;;;;;4.10;3.70;;;;;;;16.81;60.15;98781.33;433515;1271;145248;-57
2022/05/24 18:41:48;;;;;;;6.30;4.70;;;;;;;16.70;60.88;98810.63;436558;1270;141001;-58
2022/05/24 18:51:51;;;;;;;7.40;5.00;;;;;;;16.66;61.90;98837.81;431810;1270;142008;-58
2022/05/24 19:01:54;;;;;;;7.50;5.60;;;;;;;16.56;62.38;98851.19;436332;1271;141297;-55
2022/05/24 19:11:57;;;;;;;7.40;6.70;;;;;;;16.41;64.21;98847.88;438907;1271;142447;-57
2022/05/24 19:22:02;;;;;;;6.50;5.00;;;;;;;16.27;65.37;98854.42;441042;1270;141661;-56
2022/05/24 19:32:08;;;;;;;7.10;6.50;;;;;;;16.11;65.96;98851.75;431205;1271;142675;-53
2022/05/24 19:42:11;;;;;;;8.30;7.40;;;;;;;15.99;67.15;98849.09;433494;1271;145628;-59
2022/05/24 19:52:17;;;;;;;10.40;8.40;;;;;;;15.79;68.11;98860.49;440529;1271;142178;-60
2022/05/24 20:02:20;;;;;;;12.20;8.80;;;;;;;15.67;69.12;98887.00;430250;1271;141616;-61
2022/05/24 20:12:24;;;;;;;9.80;8.80;;;;;;;15.59;70.36;98893.65;430395;1271;142772;-59
2022/05/24 20:22:27;;;;;;;10.40;9.30;;;;;;;15.40;71.17;98892.83;435018;1271;141807;-62
2022/05/24 20:32:30;;;;;;;14.70;13.10;;;;;;;15.29;72.15;98892.58;434207;1271;214254;-64
2022/05/24 20:42:33;;;;;;;11.20;10.10;;;;;;;15.15;73.31;98896.56;434030;1271;142037;-59
2022/05/24 20:52:37;;;;;;;14.00;12.60;;;;;;;15.14;73.81;98912.86;434953;1271;143982;-60
2022/05/24 21:02:40;;;;;;;15.20;13.70;;;;;;;15.08;74.47;98915.49;433641;1270;141799;-58
2022/05/24 21:12:50;;;;;;;17.00;14.00;;;;;;;15.03;74.94;98927.92;430692;1271;143730;-58
2022/05/24 21:22:53;;;;;;;18.30;16.40;;;;;;;14.99;75.43;98926.39;440716;1269;141770;-55
2022/05/24 21:32:56;;;;;;;15.70;14.20;;;;;;;14.96;75.95;98929.63;438207;1270;142315;-54
2022/05/24 21:43:01;;;;;;;15.10;13.60;;;;;;;14.94;76.26;98930.38;434825;1270;147696;-56
2022/05/24 21:53:09;;;;;;;19.10;16.20;;;;;;;14.89;76.64;98941.23;431652;1271;147192;-54
2022/05/24 22:03:12;;;;;;;;;;;;;;;14.81;76.79;98952.55;432171;1271;141603;-54
2022/05/24 22:13:20;;;;;;;19.40;17.50;;;;;;;14.76;77.33;98950.00;431347;1271;128140;-54
2022/05/24 22:23:24;;;;;;;22.00;19.50;;;;;;;14.75;77.77;98963.52;441439;1270;143035;-53
2022/05/24 22:33:27;;;;;;;20.30;18.20;;;;;;;14.74;78.22;98971.48;431349;1271;141791;-56
2022/05/24 22:43:30;;;;;;;21.20;19.00;;;;;;;14.69;78.46;98979.98;431942;1270;142179;-55
2022/05/24 22:53:33;;;;;;;20.00;17.90;;;;;;;14.63;78.72;98983.73;431552;1270;141820;-52
2022/05/24 23:03:37;;;;;;;17.60;16.00;;;;;;;14.58;78.67;98981.02;430266;1271;151578;-54
2022/05/24 23:13:41;;;;;;;16.60;15.10;;;;;;;14.46;78.72;98962.86;431816;1271;142338;-54
2022/05/24 23:23:44;;;;;;;16.60;15.10;;;;;;;14.39;78.96;98972.98;438395;1271;142243;-56
2022/05/24 23:33:47;;;;;;;13.30;12.00;;;;;;;14.36;79.21;98972.42;439573;1271;141409;-54
2022/05/24 23:43:50;;;;;;;8.90;8.20;;;;;;;14.31;79.60;98967.08;432749;1271;143430;-55
2022/05/24 23:53:53;;;;;;;6.60;6.00;;;;;;;14.25;80.04;98972.35;447456;1271;143441;-55
